Time;durP1;ratioP1;P1;durP2;ratioP2;P2;SDS_P1;SDS_P2;PMS_P1;PMS_P2;Temp;Humidity;BMP_temperature;BMP_pressure;BME280_temperature;BME280_humidity;BME280_pressure;Samples;Min_cycle;Max_cycle;Signal;HPM_P1;HPM_P2
2021/11/07 00:00:08;;;;;;;0.35;0.35;;;1.90;99.20;;;;;;5015041;28;20586;-69
2021/11/07 00:02:54;;;;;;;0.30;0.30;;;2.00;99.20;;;;;;5014892;28;20187;-68
2021/11/07 00:05:25;;;;;;;0.30;0.30;;;2.00;99.10;;;;;;5014600;28;20200;-66
2021/11/07 00:08:06;;;;;;;0.30;0.30;;;2.00;99.00;;;;;;5014829;28;20250;-68
2021/11/07 00:10:38;;;;;;;0.30;0.30;;;1.90;98.90;;;;;;5014780;28;20176;-67
2021/11/07 00:13:19;;;;;;;0.30;0.30;;;1.90;98.90;;;;;;5014852;28;20188;-68
2021/11/07 00:15:45;;;;;;;0.52;0.52;;;1.90;99.00;;;;;;5014501;28;20532;-68
2021/11/07 00:18:15;;;;;;;0.30;0.30;;;1.90;98.90;;;;;;5014637;28;20644;-66
2021/11/07 00:21:08;;;;;;;0.40;0.40;;;1.90;98.90;;;;;;5014732;28;20176;-67
2021/11/07 00:23:45;;;;;;;0.45;0.45;;;1.80;98.90;;;;;;5014372;28;20219;-68
2021/11/07 00:28:48;;;;;;;0.40;0.40;;;1.80;98.80;;;;;;5014478;28;20187;-67
2021/11/07 00:38:52;;;;;;;0.40;0.40;;;1.70;99.30;;;;;;5014241;28;20211;-68
2021/11/07 00:44:08;;;;;;;0.40;0.40;;;1.80;99.20;;;;;;5014291;28;20184;-68
2021/11/07 00:46:49;;;;;;;0.30;0.30;;;1.80;99.10;;;;;;5013793;28;20279;-68
2021/11/07 00:49:22;;;;;;;0.30;0.30;;;1.50;99.00;;;;;;5014134;28;20184;-67
2021/11/07 00:52:03;;;;;;;0.30;0.30;;;1.50;99.30;;;;;;5014286;28;20179;-68
2021/11/07 00:54:42;;;;;;;0.30;0.30;;;1.60;99.50;;;;;;5012700;28;20207;-67
2021/11/07 00:57:21;;;;;;;0.30;0.30;;;1.60;99.70;;;;;;5012848;28;20174;-69
2021/11/07 00:59:58;;;;;;;0.30;0.30;;;1.70;99.80;;;;;;5014344;28;20539;-67
2021/11/07 01:02:30;;;;;;;0.30;0.30;;;1.80;99.80;;;;;;5014079;28;20167;-68
2021/11/07 01:04:56;;;;;;;0.30;0.30;;;1.80;99.60;;;;;;5012418;28;20233;-68
2021/11/07 01:07:23;;;;;;;1.45;1.38;;;1.80;99.50;;;;;;5013755;28;20210;-68
2021/11/07 01:09:53;;;;;;;0.30;0.30;;;1.80;99.60;;;;;;5014014;28;20543;-68
2021/11/07 01:12:21;;;;;;;0.40;0.40;;;1.90;99.50;;;;;;5013757;28;20258;-67
2021/11/07 01:14:49;;;;;;;0.30;0.30;;;1.90;99.50;;;;;;5013726;28;20216;-67
2021/11/07 01:17:15;;;;;;;0.30;0.30;;;1.90;99.50;;;;;;5013989;28;20599;-68
2021/11/07 01:19:42;;;;;;;0.30;0.30;;;1.90;99.50;;;;;;5013835;28;20210;-68
2021/11/07 01:22:12;;;;;;;0.40;0.40;;;1.90;99.90;;;;;;5013604;28;20438;-67
2021/11/07 01:24:41;;;;;;;0.30;0.30;;;1.90;99.50;;;;;;5014017;28;20200;-67
2021/11/07 01:27:53;;;;;;;0.40;0.40;;;1.90;99.30;;;;;;5013548;28;20159;-68
2021/11/07 01:29:56;;;;;;;0.30;0.30;;;1.90;99.10;;;;;;5013020;28;20180;-67
2021/11/07 01:32:24;;;;;;;0.30;0.30;;;1.90;98.90;;;;;;5028880;28;20654;-68
2021/11/07 01:35:09;;;;;;;0.30;0.30;;;1.70;98.70;;;;;;5013600;28;20646;-67
2021/11/07 01:37:48;;;;;;;0.30;0.30;;;1.70;98.90;;;;;;5013673;28;20630;-68
2021/11/07 01:40:17;;;;;;;0.30;0.30;;;1.70;99.00;;;;;;5013683;28;20674;-68
2021/11/07 01:42:53;;;;;;;0.30;0.30;;;1.70;99.10;;;;;;5013565;28;20188;-68
2021/11/07 01:45:26;;;;;;;0.30;0.30;;;1.80;99.20;;;;;;5013259;28;20199;-69
2021/11/07 01:48:01;;;;;;;0.30;0.30;;;1.80;99.10;;;;;;5013833;28;20229;-68
2021/11/07 01:50:27;;;;;;;0.30;0.30;;;1.80;99.10;;;;;;5012180;28;20186;-68
2021/11/07 01:53:02;;;;;;;0.30;0.30;;;1.80;99.00;;;;;;5013565;28;20552;-68
2021/11/07 01:55:28;;;;;;;0.30;0.30;;;1.80;98.90;;;;;;5013219;28;20171;-66
2021/11/07 01:57:54;;;;;;;0.30;0.30;;;1.70;98.70;;;;;;5013389;28;20259;-67
2021/11/07 02:00:27;;;;;;;0.30;0.30;;;1.70;98.60;;;;;;5013353;28;20255;-67
2021/11/07 02:02:53;;;;;;;0.30;0.30;;;1.70;98.80;;;;;;5013287;28;20426;-68
2021/11/07 02:05:18;;;;;;;0.30;0.30;;;1.70;98.90;;;;;;5013212;28;20369;-67
2021/11/07 02:07:44;;;;;;;0.40;0.40;;;1.70;99.00;;;;;;5014273;28;20394;-68
2021/11/07 02:10:13;;;;;;;0.40;0.40;;;1.60;98.90;;;;;;5017393;28;20182;-68
2021/11/07 02:12:41;;;;;;;0.30;0.30;;;1.60;99.10;;;;;;5017036;28;20198;-67
2021/11/07 02:15:10;;;;;;;0.40;0.40;;;1.60;99.20;;;;;;5016806;28;20171;-68
2021/11/07 02:17:35;;;;;;;0.30;0.30;;;1.60;99.20;;;;;;5017033;28;20175;-68
2021/11/07 02:20:04;;;;;;;0.90;0.80;;;1.60;99.30;;;;;;5016986;28;20630;-69
2021/11/07 02:22:31;;;;;;;0.40;0.40;;;1.60;99.30;;;;;;5016879;28;20168;-68
2021/11/07 02:24:56;;;;;;;0.65;0.57;;;1.70;99.40;;;;;;5016454;28;20199;-68
2021/11/07 02:27:23;;;;;;;0.40;0.40;;;1.80;99.30;;;;;;5016791;28;20173;-68
2021/11/07 02:29:50;;;;;;;0.30;0.30;;;1.90;99.30;;;;;;5016732;28;20418;-68
2021/11/07 02:32:16;;;;;;;1.30;1.30;;;2.00;99.30;;;;;;5016657;28;20226;-68
2021/11/07 02:34:43;;;;;;;0.30;0.30;;;2.00;99.30;;;;;;5016542;28;20663;-68
2021/11/07 02:37:10;;;;;;;0.40;0.40;;;2.00;99.10;;;;;;5016512;28;20182;-68
2021/11/07 02:39:36;;;;;;;0.30;0.30;;;2.00;98.90;;;;;;5016455;28;20544;-67
2021/11/07 02:42:02;;;;;;;0.30;0.30;;;2.10;99.00;;;;;;5016437;28;20197;-67
2021/11/07 02:44:45;;;;;;;0.32;0.32;;;2.10;99.00;;;;;;5016170;28;20922;-67
2021/11/07 02:47:13;;;;;;;0.30;0.30;;;2.10;98.80;;;;;;5016375;28;20502;-66
2021/11/07 02:49:40;;;;;;;0.30;0.30;;;2.10;98.80;;;;;;5016198;28;20196;-68
2021/11/07 02:52:08;;;;;;;0.30;0.30;;;2.20;98.70;;;;;;5014987;28;20169;-68
2021/11/07 02:54:34;;;;;;;0.30;0.30;;;2.10;98.90;;;;;;5016136;28;20187;-68
2021/11/07 02:57:02;;;;;;;0.30;0.30;;;2.20;99.10;;;;;;5016130;28;20176;-69
2021/11/07 02:59:31;;;;;;;0.35;0.35;;;2.10;99.40;;;;;;5016218;28;20200;-68
2021/11/07 03:01:58;;;;;;;2.85;1.85;;;2.20;99.50;;;;;;5016104;28;20183;-68
2021/11/07 03:04:25;;;;;;;0.30;0.30;;;2.30;99.20;;;;;;5015797;28;20196;-68
2021/11/07 03:06:50;;;;;;;0.40;0.40;;;2.30;99.00;;;;;;5015786;28;20172;-66
2021/11/07 03:09:20;;;;;;;0.40;0.40;;;2.30;98.80;;;;;;5015999;28;20231;-68
2021/11/07 03:11:47;;;;;;;0.30;0.30;;;2.20;98.70;;;;;;5016001;28;20160;-69
2021/11/07 03:14:25;;;;;;;0.30;0.30;;;2.20;98.60;;;;;;5015751;28;20733;-68
2021/11/07 03:16:52;;;;;;;0.30;0.30;;;2.20;98.60;;;;;;5015654;28;20589;-66
2021/11/07 03:19:21;;;;;;;0.30;0.30;;;2.10;98.60;;;;;;5014985;28;20661;-68
2021/11/07 03:21:50;;;;;;;0.30;0.30;;;2.10;98.90;;;;;;5015485;28;20188;-68
2021/11/07 03:24:17;;;;;;;0.40;0.40;;;2.20;99.20;;;;;;5015457;28;20247;-68
2021/11/07 03:26:43;;;;;;;0.30;0.30;;;2.20;99.20;;;;;;5015560;28;20192;-68
2021/11/07 03:29:10;;;;;;;0.30;0.30;;;2.30;99.10;;;;;;5015433;28;20197;-67
2021/11/07 03:31:53;;;;;;;0.30;0.30;;;2.30;99.00;;;;;;5015503;28;20528;-68
2021/11/07 03:36:56;;;;;;;0.40;0.40;;;2.30;98.90;;;;;;5015544;28;20695;-67
2021/11/07 03:39:23;;;;;;;0.30;0.30;;;2.20;99.00;;;;;;5015471;28;20209;-68
2021/11/07 03:41:50;;;;;;;0.30;0.30;;;2.20;98.90;;;;;;5015480;28;20219;-68
2021/11/07 03:44:17;;;;;;;0.30;0.30;;;2.20;98.70;;;;;;5015038;28;20208;-66
2021/11/07 03:46:47;;;;;;;0.30;0.30;;;2.10;98.50;;;;;;5015101;28;20502;-67
2021/11/07 03:49:13;;;;;;;0.30;0.30;;;2.00;98.60;;;;;;5015206;28;20187;-68
2021/11/07 03:51:39;;;;;;;0.30;0.30;;;1.90;98.60;;;;;;5015334;28;20623;-68
2021/11/07 03:54:07;;;;;;;0.32;0.32;;;1.80;98.80;;;;;;5014981;28;20426;-68
2021/11/07 03:56:33;;;;;;;0.30;0.30;;;1.90;99.40;;;;;;5014809;28;20256;-67
2021/11/07 03:59:00;;;;;;;0.30;0.30;;;1.90;99.10;;;;;;5014915;28;20172;-68
2021/11/07 04:01:27;;;;;;;0.30;0.30;;;2.00;99.10;;;;;;5015110;28;20259;-67
2021/11/07 04:03:52;;;;;;;0.30;0.30;;;2.00;98.90;;;;;;5014815;28;20534;-67
2021/11/07 04:06:18;;;;;;;0.30;0.30;;;2.00;99.00;;;;;;5014588;28;20195;-67
2021/11/07 04:08:45;;;;;;;0.35;0.35;;;2.00;98.90;;;;;;5014737;28;20172;-69
2021/11/07 04:11:11;;;;;;;0.35;0.35;;;2.00;98.80;;;;;;5014718;28;20194;-68
2021/11/07 04:13:39;;;;;;;0.30;0.30;;;1.90;98.70;;;;;;5014824;28;20206;-68
2021/11/07 04:16:07;;;;;;;0.30;0.30;;;1.80;98.70;;;;;;5014659;28;20174;-67
2021/11/07 04:18:34;;;;;;;0.30;0.30;;;1.80;98.80;;;;;;5014625;28;20180;-66
2021/11/07 04:21:00;;;;;;;0.38;0.38;;;1.80;99.00;;;;;;5014737;28;20638;-68
2021/11/07 04:23:25;;;;;;;0.40;0.40;;;1.70;99.10;;;;;;5014567;28;20196;-66
2021/11/07 04:25:51;;;;;;;0.30;0.30;;;1.70;99.30;;;;;;5014255;28;20199;-69
2021/11/07 04:28:17;;;;;;;0.33;0.33;;;1.70;99.50;;;;;;5014489;28;20537;-67
2021/11/07 04:30:43;;;;;;;0.30;0.30;;;1.80;99.30;;;;;;5014452;28;20164;-68
2021/11/07 04:33:08;;;;;;;0.30;0.30;;;1.80;99.20;;;;;;5014520;28;20184;-68
2021/11/07 04:35:34;;;;;;;0.30;0.30;;;1.80;99.10;;;;;;5014167;28;20434;-68
2021/11/07 04:38:00;;;;;;;3.90;1.15;;;1.80;99.00;;;;;;5014190;28;20246;-67
2021/11/07 04:40:27;;;;;;;0.40;0.40;;;1.70;98.70;;;;;;5014495;28;20218;-67
2021/11/07 04:42:53;;;;;;;0.30;0.30;;;1.70;98.80;;;;;;5014183;28;20200;-68
2021/11/07 04:45:19;;;;;;;0.30;0.30;;;1.70;98.80;;;;;;5013930;28;20195;-68
2021/11/07 04:47:45;;;;;;;0.40;0.40;;;1.70;98.80;;;;;;5014279;28;20644;-68
2021/11/07 04:50:13;;;;;;;0.30;0.30;;;1.70;98.70;;;;;;5013922;28;20189;-67
2021/11/07 04:52:39;;;;;;;0.38;0.38;;;1.70;98.60;;;;;;5014164;28;20184;-68
2021/11/07 04:55:07;;;;;;;0.30;0.30;;;1.50;98.50;;;;;;5013886;28;20172;-66
2021/11/07 04:57:32;;;;;;;0.73;0.73;;;1.50;98.60;;;;;;5014072;28;20543;-68
2021/11/07 04:59:59;;;;;;;0.30;0.30;;;1.50;98.60;;;;;;5014060;28;20179;-68
2021/11/07 05:02:25;;;;;;;0.30;0.30;;;1.60;98.70;;;;;;5013974;28;20181;-67
2021/11/07 05:04:54;;;;;;;0.40;0.40;;;1.60;98.70;;;;;;5013643;28;20258;-67
2021/11/07 05:07:21;;;;;;;0.30;0.30;;;1.60;98.60;;;;;;5014276;28;20167;-68
2021/11/07 05:09:47;;;;;;;0.30;0.30;;;1.50;98.50;;;;;;5012543;28;20287;-69
2021/11/07 05:12:13;;;;;;;0.40;0.40;;;1.50;98.40;;;;;;5014021;28;20167;-69
2021/11/07 05:14:39;;;;;;;0.30;0.30;;;1.50;98.50;;;;;;5013690;28;20198;-67
2021/11/07 05:17:05;;;;;;;0.30;0.30;;;1.40;98.50;;;;;;5012369;28;20426;-67
2021/11/07 05:19:32;;;;;;;0.40;0.40;;;1.40;98.70;;;;;;5013884;28;20174;-66
2021/11/07 05:21:58;;;;;;;0.30;0.30;;;1.40;99.10;;;;;;5013675;28;20175;-67
2021/11/07 05:24:24;;;;;;;0.30;0.30;;;1.40;99.20;;;;;;5013513;28;20566;-68
2021/11/07 05:26:50;;;;;;;0.50;0.50;;;1.50;99.40;;;;;;5013569;28;20196;-68
2021/11/07 05:29:15;;;;;;;0.30;0.30;;;1.60;99.50;;;;;;5013555;28;20243;-68
2021/11/07 05:31:41;;;;;;;0.30;0.30;;;1.60;99.30;;;;;;5013773;28;20174;-68
2021/11/07 05:34:07;;;;;;;0.30;0.30;;;1.60;99.00;;;;;;5013618;28;20192;-67
2021/11/07 05:36:33;;;;;;;0.30;0.30;;;1.70;99.00;;;;;;5013399;28;20222;-68
2021/11/07 05:38:59;;;;;;;0.30;0.30;;;1.70;98.80;;;;;;5014074;28;20255;-68
2021/11/07 05:41:24;;;;;;;0.30;0.30;;;1.70;98.70;;;;;;5013639;28;20672;-68
2021/11/07 05:43:50;;;;;;;0.37;0.37;;;1.70;98.80;;;;;;5015541;28;20190;-68
2021/11/07 05:46:16;;;;;;;0.30;0.30;;;1.70;98.80;;;;;;5017341;28;20254;-67
2021/11/07 05:48:42;;;;;;;0.40;0.40;;;1.60;98.80;;;;;;5017423;28;20464;-66
2021/11/07 05:51:10;;;;;;;0.30;0.30;;;1.50;98.70;;;;;;5017322;28;20188;-68
2021/11/07 05:53:36;;;;;;;0.40;0.40;;;1.50;98.80;;;;;;5016034;28;20266;-68
2021/11/07 05:56:02;;;;;;;0.30;0.30;;;1.50;98.70;;;;;;5017232;28;20258;-68
2021/11/07 05:58:27;;;;;;;0.30;0.30;;;1.40;98.80;;;;;;5017362;28;20497;-67
2021/11/07 06:00:53;;;;;;;0.30;0.30;;;1.50;99.00;;;;;;5017415;28;20255;-68
2021/11/07 06:03:19;;;;;;;0.43;0.43;;;1.50;99.00;;;;;;5017208;28;20188;-67
2021/11/07 06:05:45;;;;;;;0.30;0.30;;;1.60;99.00;;;;;;5017077;28;20211;-66
2021/11/07 06:08:10;;;;;;;0.33;0.33;;;1.60;98.80;;;;;;5017102;28;20203;-68
2021/11/07 06:10:36;;;;;;;0.30;0.30;;;1.60;98.70;;;;;;5017363;28;20191;-68
2021/11/07 06:13:04;;;;;;;0.30;0.30;;;1.60;98.70;;;;;;5016903;28;20188;-68
2021/11/07 06:15:30;;;;;;;0.40;0.40;;;1.70;98.80;;;;;;5016965;28;20403;-67
2021/11/07 06:17:56;;;;;;;0.40;0.40;;;1.70;98.90;;;;;;5017027;28;20251;-68
2021/11/07 06:20:22;;;;;;;0.30;0.30;;;1.70;98.60;;;;;;5016852;28;20234;-67
2021/11/07 06:22:48;;;;;;;0.30;0.30;;;1.70;98.60;;;;;;5015324;28;20469;-68
2021/11/07 06:25:14;;;;;;;0.30;0.30;;;1.80;98.70;;;;;;5016614;28;20199;-68
2021/11/07 06:27:41;;;;;;;0.30;0.30;;;1.80;98.70;;;;;;5016717;28;20198;-66
2021/11/07 06:30:09;;;;;;;0.38;0.38;;;1.70;98.60;;;;;;5016748;28;20189;-69
2021/11/07 06:32:35;;;;;;;0.32;0.32;;;1.70;98.90;;;;;;5016597;28;20176;-67
2021/11/07 06:35:03;;;;;;;0.30;0.30;;;1.80;99.00;;;;;;5016516;28;20177;-69
2021/11/07 06:37:29;;;;;;;0.52;0.52;;;1.90;99.20;;;;;;5016731;28;20185;-68
2021/11/07 06:39:55;;;;;;;0.30;0.30;;;2.00;98.50;;;;;;5016703;28;20556;-67
2021/11/07 06:42:21;;;;;;;1.30;1.30;;;1.90;98.30;;;;;;5016525;28;20245;-67
2021/11/07 06:44:47;;;;;;;0.30;0.30;;;1.70;98.40;;;;;;5016330;28;20673;-66
2021/11/07 06:47:13;;;;;;;0.30;0.30;;;1.60;98.80;;;;;;5016426;28;20224;-69
2021/11/07 06:49:39;;;;;;;0.88;0.88;;;1.80;98.90;;;;;;5016209;28;20188;-68
2021/11/07 06:52:05;;;;;;;0.30;0.30;;;1.90;99.00;;;;;;5016461;28;20175;-68
2021/11/07 06:54:31;;;;;;;0.30;0.30;;;2.00;98.90;;;;;;5016066;28;20197;-68
2021/11/07 06:56:58;;;;;;;0.30;0.30;;;2.00;98.80;;;;;;5016172;28;20685;-67
2021/11/07 06:59:24;;;;;;;0.30;0.30;;;2.10;98.70;;;;;;5016271;28;20181;-68
2021/11/07 07:01:49;;;;;;;0.40;0.40;;;2.30;98.90;;;;;;5014895;28;20184;-68
2021/11/07 07:04:15;;;;;;;0.30;0.30;;;2.50;99.00;;;;;;5016119;28;20197;-67
2021/11/07 07:06:41;;;;;;;0.30;0.30;;;2.60;98.70;;;;;;5014661;28;20205;-68
2021/11/07 07:09:13;;;;;;;0.30;0.30;;;2.80;98.60;;;;;;5016290;28;20167;-67
2021/11/07 07:11:44;;;;;;;5.00;1.30;;;3.00;98.50;;;;;;5016124;28;20503;-67
2021/11/07 07:14:18;;;;;;;0.30;0.30;;;3.10;98.40;;;;;;5015991;28;20274;-68
2021/11/07 07:34:43;;;;;;;0.37;0.37;;;4.10;97.70;;;;;;5015646;28;20661;-68
2021/11/07 07:37:09;;;;;;;0.32;0.32;;;4.20;97.40;;;;;;5015414;28;20209;-67
2021/11/07 07:39:34;;;;;;;0.30;0.30;;;4.20;97.40;;;;;;5015588;28;20218;-68
2021/11/07 07:42:00;;;;;;;0.40;0.40;;;4.10;97.50;;;;;;5015401;28;20174;-68
2021/11/07 07:44:26;;;;;;;0.40;0.40;;;4.20;97.60;;;;;;5015130;28;20704;-68
2021/11/07 07:46:52;;;;;;;1.90;0.93;;;4.30;97.10;;;;;;5015193;28;20171;-67
2021/11/07 07:49:18;;;;;;;0.40;0.40;;;4.40;97.50;;;;;;5015129;28;20176;-69
2021/11/07 07:51:46;;;;;;;0.40;0.40;;;4.50;97.90;;;;;;5015298;28;20206;-67
2021/11/07 07:54:13;;;;;;;0.40;0.40;;;4.70;97.70;;;;;;5015131;28;20191;-67
2021/11/07 07:56:39;;;;;;;0.40;0.40;;;4.90;97.80;;;;;;5014938;28;20550;-68
2021/11/07 07:59:05;;;;;;;0.40;0.40;;;4.90;97.30;;;;;;5014929;28;20243;-68
2021/11/07 08:01:32;;;;;;;0.30;0.30;;;5.10;96.90;;;;;;5015195;28;20664;-67
2021/11/07 08:03:58;;;;;;;0.40;0.40;;;5.00;96.90;;;;;;5014749;28;20198;-67
2021/11/07 08:06:24;;;;;;;0.30;0.30;;;5.20;97.40;;;;;;5014168;28;20576;-68
2021/11/07 08:08:50;;;;;;;0.30;0.30;;;5.20;97.70;;;;;;5014995;28;20774;-69
2021/11/07 08:11:16;;;;;;;0.30;0.30;;;5.40;97.70;;;;;;5015017;28;20178;-67
2021/11/07 08:13:42;;;;;;;0.40;0.40;;;5.60;97.30;;;;;;5014692;28;20190;-68
2021/11/07 08:16:09;;;;;;;0.30;0.30;;;5.70;96.60;;;;;;5014506;28;20306;-69
2021/11/07 08:18:35;;;;;;;0.30;0.30;;;5.80;97.00;;;;;;5014831;28;20254;-69
2021/11/07 08:21:02;;;;;;;0.30;0.30;;;6.00;97.20;;;;;;5014756;28;20207;-68
2021/11/07 08:23:27;;;;;;;0.30;0.30;;;6.20;97.40;;;;;;5014863;28;20191;-68
2021/11/07 08:25:53;;;;;;;0.30;0.30;;;6.10;96.70;;;;;;5014329;28;20194;-68
2021/11/07 08:28:21;;;;;;;0.50;0.50;;;6.10;96.60;;;;;;5014771;28;20703;-68
2021/11/07 08:30:51;;;;;;;0.30;0.30;;;6.10;96.80;;;;;;5014491;28;20407;-68
2021/11/07 08:33:17;;;;;;;0.40;0.40;;;6.30;97.20;;;;;;5013336;28;20195;-69
2021/11/07 08:35:44;;;;;;;0.30;0.30;;;6.50;97.10;;;;;;5014414;28;20175;-67
2021/11/07 08:38:17;;;;;;;1.40;1.00;;;6.70;97.20;;;;;;5014367;28;20465;-69
2021/11/07 08:40:49;;;;;;;0.30;0.30;;;6.80;97.10;;;;;;5014352;28;20234;-68
2021/11/07 09:02:36;;;;;;;0.30;0.30;;;10.60;92.20;;;;;;5014245;28;20174;-66
2021/11/07 09:10:04;;;;;;;0.30;0.30;;;11.20;84.20;;;;;;5014131;28;20245;-68
2021/11/07 09:12:30;;;;;;;0.30;0.30;;;11.10;85.10;;;;;;5013959;28;20634;-67
2021/11/07 09:14:56;;;;;;;0.30;0.30;;;10.80;84.90;;;;;;5013593;28;20178;-68
2021/11/07 09:17:23;;;;;;;0.40;0.40;;;10.30;87.00;;;;;;5013084;28;20187;-68
2021/11/07 09:19:52;;;;;;;0.30;0.30;;;9.30;90.20;;;;;;5013850;28;20171;-69
2021/11/07 09:27:27;;;;;;;0.52;0.52;;;9.20;92.50;;;;;;5013890;28;20257;-67
2021/11/07 09:30:13;;;;;;;0.50;0.50;;;9.50;92.20;;;;;;5013902;28;20178;-68
2021/11/07 09:35:27;;;;;;;0.60;0.60;;;10.20;90.60;;;;;;5012337;28;20265;-69
2021/11/07 09:37:57;;;;;;;0.80;0.80;;;10.40;90.10;;;;;;5012841;28;20587;-69
2021/11/07 09:40:27;;;;;;;0.30;0.30;;;10.80;88.30;;;;;;5013530;28;20175;-69
2021/11/07 09:43:09;;;;;;;0.30;0.30;;;11.90;88.50;;;;;;5011157;28;20298;-69
2021/11/07 09:48:34;;;;;;;0.50;0.50;;;15.20;75.90;;;;;;5013735;28;20434;-69
2021/11/07 09:50:55;;;;;;;0.40;0.40;;;15.60;67.90;;;;;;5013165;28;20435;-69
2021/11/07 09:53:22;;;;;;;0.30;0.30;;;15.10;69.10;;;;;;5013337;28;20433;-68
2021/11/07 09:55:49;;;;;;;0.30;0.30;;;15.60;67.90;;;;;;5013082;28;20485;-69
2021/11/07 09:58:15;;;;;;;0.40;0.40;;;15.80;65.30;;;;;;5013594;28;20402;-68
2021/11/07 10:00:45;;;;;;;0.30;0.30;;;16.00;66.40;;;;;;5013551;28;20410;-67
2021/11/07 10:03:13;;;;;;;0.37;0.37;;;16.20;61.10;;;;;;5013454;28;20434;-68
2021/11/07 10:05:42;;;;;;;0.30;0.30;;;16.70;60.40;;;;;;5013029;28;20572;-69
2021/11/07 10:08:10;;;;;;;0.30;0.30;;;17.30;58.70;;;;;;5013415;28;20523;-68
2021/11/07 10:10:43;;;;;;;0.30;0.30;;;17.60;56.40;;;;;;5013353;28;20408;-70
2021/11/07 10:13:14;;;;;;;0.30;0.30;;;17.70;53.80;;;;;;5013463;28;20426;-69
2021/11/07 10:15:51;;;;;;;0.30;0.30;;;17.80;53.10;;;;;;5013172;28;20482;-67
2021/11/07 10:21:23;;;;;;;0.30;0.30;;;18.50;52.50;;;;;;5012843;28;20437;-70
2021/11/07 10:24:18;;;;;;;0.30;0.30;;;19.40;51.50;;;;;;5013062;28;20433;-66
2021/11/07 10:26:50;;;;;;;0.40;0.40;;;20.00;48.30;;;;;;5013052;28;20423;-69
2021/11/07 10:29:44;;;;;;;0.30;0.30;;;19.60;48.10;;;;;;5014321;28;20412;-69
2021/11/07 10:32:23;;;;;;;0.30;0.30;;;19.30;48.00;;;;;;5016627;28;20398;-69
2021/11/07 10:45:28;;;;;;;0.30;0.30;;;17.40;47.20;;;;;;5016174;28;20453;-68
2021/11/07 10:53:15;;;;;;;0.87;0.77;;;15.90;51.50;;;;;;5016726;28;20434;-69
2021/11/07 10:55:47;;;;;;;0.30;0.30;;;15.20;53.50;;;;;;5016087;28;20422;-70
2021/11/07 10:58:14;;;;;;;0.37;0.37;;;14.90;53.90;;;;;;5016484;28;20413;-68
2021/11/07 11:00:47;;;;;;;0.30;0.30;;;14.60;54.20;;;;;;5016279;28;20415;-69
2021/11/07 11:03:17;;;;;;;0.30;0.30;;;14.30;55.80;;;;;;5014836;28;20464;-68
2021/11/07 11:05:56;;;;;;;0.30;0.30;;;14.00;56.00;;;;;;5015863;28;20507;-69
2021/11/07 11:08:36;;;;;;;0.40;0.40;;;13.80;56.40;;;;;;5016432;28;20806;-69
2021/11/07 11:11:29;;;;;;;0.30;0.30;;;13.10;56.80;;;;;;5016029;28;20811;-67
2021/11/07 11:35:39;;;;;;;0.30;0.30;;;11.50;59.70;;;;;;5015605;28;20159;-69
2021/11/07 11:38:31;;;;;;;0.30;0.30;;;11.30;60.40;;;;;;5015767;28;20550;-68
2021/11/07 11:43:48;;;;;;;0.30;0.30;;;11.20;60.80;;;;;;5015352;28;20199;-69
2021/11/07 11:46:25;;;;;;;0.30;0.30;;;11.20;66.50;;;;;;5015197;28;20191;-69
2021/11/07 11:49:27;;;;;;;0.30;0.30;;;11.30;63.10;;;;;;5015361;28;20242;-68
2021/11/07 11:52:23;;;;;;;0.30;0.30;;;11.20;62.60;;;;;;5015257;28;20194;-68
2021/11/07 11:55:20;;;;;;;0.50;0.50;;;11.30;64.50;;;;;;5014936;28;20544;-67
2021/11/07 12:00:37;;;;;;;0.30;0.30;;;11.40;61.60;;;;;;5015065;28;20231;-69
2021/11/07 12:03:21;;;;;;;0.30;0.30;;;11.40;62.30;;;;;;5014832;28;20216;-68
2021/11/07 12:08:23;;;;;;;0.30;0.30;;;11.10;63.60;;;;;;5015125;28;20186;-69
2021/11/07 12:11:04;;;;;;;0.30;0.30;;;10.90;63.70;;;;;;5015113;28;20174;-69
2021/11/07 12:13:49;;;;;;;0.40;0.40;;;10.80;63.00;;;;;;5014729;28;20187;-69
2021/11/07 12:16:27;;;;;;;0.30;0.30;;;10.70;62.40;;;;;;5014607;28;20526;-67
2021/11/07 12:19:02;;;;;;;0.30;0.30;;;10.60;63.10;;;;;;5014891;28;20194;-69
2021/11/07 12:21:57;;;;;;;0.50;0.50;;;10.50;65.20;;;;;;5014704;28;20258;-69
2021/11/07 12:24:48;;;;;;;0.30;0.30;;;10.20;62.30;;;;;;5014443;28;20208;-69
2021/11/07 12:27:36;;;;;;;0.30;0.30;;;10.10;64.00;;;;;;5014581;28;20211;-69
2021/11/07 12:30:17;;;;;;;0.30;0.30;;;10.40;64.10;;;;;;5014052;28;20168;-69
2021/11/07 12:32:45;;;;;;;0.30;0.30;;;10.70;64.30;;;;;;5014390;28;20230;-69
2021/11/07 12:35:33;;;;;;;0.30;0.30;;;11.00;63.00;;;;;;5014212;28;20611;-69
2021/11/07 12:41:00;;;;;;;0.30;0.30;;;11.40;61.80;;;;;;5014788;28;20249;-68
2021/11/07 12:43:53;;;;;;;0.30;0.30;;;11.50;62.10;;;;;;5014391;28;20218;-70
2021/11/07 12:49:16;;;;;;;0.30;0.30;;;11.60;65.70;;;;;;5014157;28;20191;-68
2021/11/07 12:51:47;;;;;;;0.30;0.30;;;11.70;64.80;;;;;;5014195;28;20187;-69
2021/11/07 12:54:14;;;;;;;0.30;0.30;;;11.60;62.90;;;;;;5014000;28;20296;-68
2021/11/07 12:56:43;;;;;;;0.40;0.40;;;11.00;62.90;;;;;;5013991;28;20688;-67
2021/11/07 12:59:16;;;;;;;0.30;0.30;;;10.80;64.80;;;;;;5014157;28;20637;-66
2021/11/07 13:02:01;;;;;;;0.30;0.30;;;10.80;65.60;;;;;;5014180;28;20171;-69
2021/11/07 13:04:28;;;;;;;0.30;0.30;;;11.00;67.00;;;;;;5013884;28;20205;-69
2021/11/07 13:06:57;;;;;;;0.30;0.30;;;10.90;65.50;;;;;;5013845;28;20190;-69
2021/11/07 13:09:34;;;;;;;0.30;0.30;;;11.10;66.20;;;;;;5013982;28;20191;-68
2021/11/07 13:12:13;;;;;;;0.30;0.30;;;11.10;65.80;;;;;;5014018;28;20175;-68
2021/11/07 13:15:16;;;;;;;0.30;0.30;;;11.20;66.90;;;;;;5013939;28;20269;-69
2021/11/07 13:31:42;;;;;;;0.30;0.30;;;11.00;67.10;;;;;;5011654;28;20218;-68
2021/11/07 13:34:11;;;;;;;0.60;0.60;;;10.90;68.20;;;;;;5012640;28;20289;-69
2021/11/07 13:36:42;;;;;;;0.57;0.57;;;11.00;70.40;;;;;;5013632;28;20329;-67
2021/11/07 13:39:08;;;;;;;0.30;0.30;;;11.20;71.30;;;;;;5013843;28;20566;-69
2021/11/07 13:41:35;;;;;;;0.30;0.30;;;11.30;70.60;;;;;;5013636;28;20166;-68
2021/11/07 13:44:17;;;;;;;0.30;0.30;;;11.50;71.00;;;;;;5013373;28;20563;-69
2021/11/07 13:47:03;;;;;;;0.30;0.30;;;11.50;70.00;;;;;;5013571;28;20259;-69
2021/11/07 13:49:29;;;;;;;0.30;0.30;;;11.50;69.00;;;;;;5013450;28;20270;-68
2021/11/07 13:51:59;;;;;;;0.30;0.30;;;11.40;69.50;;;;;;5013657;28;20191;-69
2021/11/07 13:54:25;;;;;;;0.30;0.30;;;11.40;69.80;;;;;;5013431;28;20270;-69
2021/11/07 13:56:52;;;;;;;0.30;0.30;;;11.20;71.20;;;;;;5013273;28;20183;-67
2021/11/07 13:59:31;;;;;;;0.30;0.30;;;11.00;70.90;;;;;;5013466;28;20180;-69
2021/11/07 14:01:57;;;;;;;0.30;0.30;;;11.00;72.90;;;;;;5013708;28;20221;-69
2021/11/07 14:04:39;;;;;;;0.30;0.30;;;11.00;72.70;;;;;;5030011;28;20223;-69
2021/11/07 14:07:19;;;;;;;0.60;0.60;;;11.00;73.20;;;;;;5017026;28;20171;-68
2021/11/07 14:09:57;;;;;;;0.30;0.30;;;10.80;72.50;;;;;;5017252;28;20168;-70
2021/11/07 14:12:35;;;;;;;0.30;0.30;;;10.70;73.80;;;;;;5017169;28;20178;-66
2021/11/07 14:15:14;;;;;;;0.30;0.30;;;10.60;74.00;;;;;;5016829;28;20310;-69
2021/11/07 14:17:42;;;;;;;0.40;0.40;;;10.50;74.40;;;;;;5017034;28;20262;-68
2021/11/07 14:20:08;;;;;;;0.85;0.68;;;10.50;75.50;;;;;;5017145;28;20167;-66
2021/11/07 14:22:36;;;;;;;0.30;0.30;;;10.40;74.80;;;;;;5017175;28;20182;-69
2021/11/07 14:25:08;;;;;;;2.45;1.40;;;10.30;74.90;;;;;;5015288;28;20211;-69
2021/11/07 14:27:45;;;;;;;0.30;0.30;;;10.20;76.00;;;;;;5016890;28;20261;-69
2021/11/07 14:30:19;;;;;;;0.30;0.30;;;10.20;76.60;;;;;;5017083;28;20581;-67
2021/11/07 14:32:51;;;;;;;0.30;0.30;;;10.00;76.70;;;;;;5016869;28;20212;-67
2021/11/07 14:40:28;;;;;;;0.30;0.30;;;10.00;79.30;;;;;;5016966;28;20175;-68
2021/11/07 14:54:04;;;;;;;0.30;0.30;;;10.20;80.20;;;;;;5016650;28;20195;-68
2021/11/07 14:56:49;;;;;;;0.40;0.40;;;10.30;80.50;;;;;;5016050;28;20164;-67
2021/11/07 15:00:01;;;;;;;0.30;0.30;;;10.20;80.60;;;;;;5016421;28;20167;-69
2021/11/07 15:02:55;;;;;;;0.30;0.30;;;10.20;81.30;;;;;;5016287;28;20240;-68
2021/11/07 15:05:30;;;;;;;0.30;0.30;;;10.20;81.80;;;;;;5016031;28;20195;-69
2021/11/07 15:08:18;;;;;;;1.75;1.20;;;10.10;82.30;;;;;;5016294;28;20531;-66
2021/11/07 15:10:55;;;;;;;0.30;0.30;;;10.00;83.40;;;;;;5031347;28;20197;-67
2021/11/07 15:18:44;;;;;;;0.30;0.30;;;9.60;86.60;;;;;;5016035;28;20223;-67
2021/11/07 15:21:27;;;;;;;0.30;0.30;;;9.50;87.60;;;;;;5015739;28;20198;-68
2021/11/07 15:24:07;;;;;;;0.40;0.40;;;9.50;88.80;;;;;;5015719;28;20633;-67
2021/11/07 15:26:39;;;;;;;0.30;0.30;;;9.50;90.30;;;;;;5015668;28;20593;-67
2021/11/07 15:29:10;;;;;;;0.30;0.30;;;9.50;90.70;;;;;;5015891;28;20269;-68
2021/11/07 15:31:36;;;;;;;0.30;0.30;;;9.60;91.10;;;;;;5015871;28;20179;-69
2021/11/07 15:34:06;;;;;;;0.30;0.30;;;9.50;91.10;;;;;;5015202;28;20195;-68
2021/11/07 15:36:42;;;;;;;0.30;0.30;;;9.50;92.00;;;;;;5030458;28;20672;-69
2021/11/07 15:39:16;;;;;;;0.30;0.30;;;9.50;92.70;;;;;;5015691;28;20181;-69
2021/11/07 15:42:05;;;;;;;0.30;0.30;;;9.40;93.10;;;;;;5015812;28;20165;-67
2021/11/07 15:44:34;;;;;;;0.40;0.40;;;9.10;93.50;;;;;;5015380;28;20308;-69
2021/11/07 15:47:02;;;;;;;0.70;0.70;;;8.80;94.60;;;;;;5015091;28;20178;-68
2021/11/07 15:49:32;;;;;;;0.30;0.30;;;8.80;95.00;;;;;;5014927;28;20183;-67